createdAt,value
2022-12-18T00:00:40.366Z,102721.88
2022-12-18T00:03:10.881Z,102722.16
2022-12-18T00:05:41.556Z,102720.31
2022-12-18T00:08:12.324Z,102716.65
2022-12-18T00:10:42.929Z,102712.68
2022-12-18T00:13:13.612Z,102702.85
2022-12-18T00:15:44.527Z,102700.50
2022-12-18T00:18:18.970Z,102701.52
2022-12-18T00:20:45.417Z,102704.51
2022-12-18T00:23:15.781Z,102704.03
2022-12-18T00:25:45.982Z,102710.21
2022-12-18T00:28:16.392Z,102715.22
2022-12-18T00:30:47.304Z,102714.08
2022-12-18T00:33:17.806Z,102713.13
2022-12-18T00:35:47.930Z,102724.61
2022-12-18T00:38:18.791Z,102730.33
2022-12-18T00:40:49.064Z,102733.19
2022-12-18T00:43:19.291Z,102735.54
2022-12-18T00:45:49.546Z,102733.47
2022-12-18T00:48:20.032Z,102730.76
2022-12-18T00:50:50.649Z,102727.95
2022-12-18T00:53:21.196Z,102727.26
2022-12-18T00:55:52.026Z,102727.68
2022-12-18T00:58:22.526Z,102722.25
2022-12-18T01:00:52.774Z,102716.49
2022-12-18T01:03:23.613Z,102712.29
2022-12-18T01:05:54.145Z,102711.59
2022-12-18T01:08:24.877Z,102711.37
2022-12-18T01:10:54.990Z,102707.50
2022-12-18T01:13:25.140Z,102701.64
2022-12-18T01:15:55.646Z,102702.97
2022-12-18T01:18:25.614Z,102703.73
2022-12-18T01:20:55.785Z,102711.25
2022-12-18T01:23:26.420Z,102718.40
2022-12-18T01:25:57.324Z,102715.58
2022-12-18T01:28:27.853Z,102717.87
2022-12-18T01:30:58.698Z,102722.38
2022-12-18T01:33:28.697Z,102724.57
2022-12-18T01:35:59.493Z,102727.81
2022-12-18T01:38:29.531Z,102725.93
2022-12-18T01:41:00.127Z,102733.55
2022-12-18T01:43:30.659Z,102732.72
2022-12-18T01:46:01.372Z,102736.42
2022-12-18T01:48:31.949Z,102735.12
2022-12-18T01:51:02.769Z,102738.83
2022-12-18T01:53:33.616Z,102740.87
2022-12-18T01:56:03.905Z,102735.68
2022-12-18T01:58:33.963Z,102731.18
2022-12-18T02:01:04.032Z,102732.67
2022-12-18T02:03:34.892Z,102735.40
2022-12-18T02:06:05.072Z,102737.41
2022-12-18T02:08:35.568Z,102733.93
2022-12-18T02:11:05.657Z,102732.06
2022-12-18T02:13:36.829Z,102733.38
2022-12-18T02:16:07.454Z,102735.75
2022-12-18T02:18:37.503Z,102739.47
2022-12-18T02:21:08.103Z,102739.40
2022-12-18T02:23:38.751Z,102736.66
2022-12-18T02:26:08.549Z,102731.77
2022-12-18T02:28:38.869Z,102729.25
2022-12-18T02:31:09.533Z,102727.31
2022-12-18T02:33:40.493Z,102717.86
2022-12-18T02:36:10.870Z,102709.68
2022-12-18T02:38:41.167Z,102707.69
2022-12-18T02:41:11.928Z,102707.61
2022-12-18T02:43:42.608Z,102709.90
2022-12-18T02:46:13.125Z,102712.70
2022-12-18T02:48:43.850Z,102718.15
2022-12-18T02:51:14.208Z,102717.12
2022-12-18T02:53:44.889Z,102717.19
2022-12-18T02:56:15.511Z,102712.37
2022-12-18T02:58:45.914Z,102711.49
2022-12-18T03:01:16.168Z,102705.90
2022-12-18T03:03:46.563Z,102695.21
2022-12-18T03:06:16.677Z,102691.61
2022-12-18T03:08:47.141Z,102693.17
2022-12-18T03:11:17.683Z,102696.78
2022-12-18T03:13:48.308Z,102701.26
2022-12-18T03:16:18.927Z,102701.11
2022-12-18T03:18:49.464Z,102701.46
2022-12-18T03:21:19.962Z,102704.23
2022-12-18T03:23:50.720Z,102709.14
2022-12-18T03:26:21.209Z,102711.51
2022-12-18T03:28:51.446Z,102708.00
2022-12-18T03:31:21.712Z,102703.54
2022-12-18T03:33:52.478Z,102698.21
2022-12-18T03:36:22.802Z,102696.56
2022-12-18T03:38:53.608Z,102697.57
2022-12-18T03:41:23.738Z,102699.67
2022-12-18T03:43:54.621Z,102700.02
2022-12-18T03:46:24.958Z,102698.16
2022-12-18T03:48:55.367Z,102704.75
2022-12-18T03:51:26.144Z,102706.30
2022-12-18T03:53:56.530Z,102707.69
2022-12-18T03:56:26.600Z,102704.87
2022-12-18T03:58:57.313Z,102699.58
2022-12-18T04:01:28.073Z,102698.42
2022-12-18T04:03:58.899Z,102693.81
2022-12-18T04:06:29.152Z,102694.99
2022-12-18T04:08:59.871Z,102696.93
2022-12-18T04:11:30.503Z,102700.12
2022-12-18T04:14:03.572Z,102703.59
2022-12-18T04:16:30.720Z,102708.79
2022-12-18T04:19:00.893Z,102708.76
2022-12-18T04:21:31.428Z,102712.45
2022-12-18T04:24:02.155Z,102707.88
2022-12-18T04:26:32.638Z,102701.77
2022-12-18T04:29:03.103Z,102693.10
2022-12-18T04:31:33.621Z,102690.67
2022-12-18T04:34:03.882Z,102689.32
2022-12-18T04:36:33.824Z,102682.84
2022-12-18T04:39:04.570Z,102681.67
2022-12-18T04:41:35.340Z,102682.17
2022-12-18T04:44:05.723Z,102680.65
2022-12-18T04:46:36.532Z,102675.80
2022-12-18T04:49:07.374Z,102686.09
2022-12-18T04:51:37.929Z,102685.04
2022-12-18T04:54:08.536Z,102681.11
2022-12-18T04:56:38.651Z,102683.16
2022-12-18T04:59:08.702Z,102682.23
2022-12-18T05:01:39.198Z,102683.01
2022-12-18T05:04:09.253Z,102683.14
2022-12-18T05:06:39.987Z,102675.21
2022-12-18T05:09:10.677Z,102675.99
2022-12-18T05:11:41.014Z,102675.22
2022-12-18T05:14:11.248Z,102676.98
2022-12-18T05:16:42.007Z,102681.97
2022-12-18T05:19:12.418Z,102690.02
2022-12-18T05:21:42.823Z,102689.40
2022-12-18T05:24:13.759Z,102691.25
2022-12-18T05:26:44.288Z,102693.18
2022-12-18T05:29:14.524Z,102691.39
2022-12-18T05:31:45.227Z,102691.82
2022-12-18T05:34:15.463Z,102700.02
2022-12-18T05:36:46.096Z,102707.59
2022-12-18T05:39:16.713Z,102704.18
2022-12-18T05:41:47.413Z,102706.95
2022-12-18T05:44:18.151Z,102707.91
2022-12-18T05:46:49.141Z,102709.89
2022-12-18T05:49:19.063Z,102705.62
2022-12-18T05:51:49.349Z,102703.28
2022-12-18T05:54:19.887Z,102704.51
2022-12-18T05:56:50.753Z,102705.91
2022-12-18T05:59:20.820Z,102705.63
2022-12-18T06:01:51.479Z,102701.10
2022-12-18T06:04:22.214Z,102705.02
2022-12-18T06:06:52.282Z,102713.98
2022-12-18T06:09:22.977Z,102722.01
2022-12-18T06:11:53.869Z,102732.37
2022-12-18T06:14:24.603Z,102736.14
2022-12-18T06:16:55.379Z,102730.18
2022-12-18T06:19:25.765Z,102731.54
2022-12-18T06:21:56.093Z,102730.12
2022-12-18T06:24:26.486Z,102732.48
2022-12-18T06:26:57.154Z,102738.99
2022-12-18T06:29:27.334Z,102743.83
2022-12-18T06:31:58.001Z,102743.69
2022-12-18T06:34:28.155Z,102742.13
2022-12-18T06:36:58.756Z,102745.66
2022-12-18T06:39:28.822Z,102747.44
2022-12-18T06:41:59.277Z,102748.02
2022-12-18T06:44:29.474Z,102740.04
2022-12-18T06:47:00.057Z,102737.06
2022-12-18T06:49:30.918Z,102738.65
2022-12-18T06:52:01.525Z,102742.26
2022-12-18T06:54:32.351Z,102740.43
2022-12-18T06:57:02.552Z,102737.67
2022-12-18T06:59:32.600Z,102731.07
2022-12-18T07:02:03.395Z,102732.56
2022-12-18T07:04:34.228Z,102729.15
2022-12-18T07:07:05.034Z,102730.26
2022-12-18T07:09:35.729Z,102733.38
2022-12-18T07:12:06.494Z,102730.68
2022-12-18T07:14:37.351Z,102730.83
2022-12-18T07:17:07.832Z,102731.26
2022-12-18T07:19:38.430Z,102727.43
2022-12-18T07:22:08.576Z,102726.99
2022-12-18T07:24:38.967Z,102728.41
2022-12-18T07:27:09.696Z,102730.33
2022-12-18T07:29:39.800Z,102726.57
2022-12-18T07:32:09.853Z,102728.35
2022-12-18T07:34:40.291Z,102727.65
2022-12-18T07:37:10.473Z,102722.28
2022-12-18T07:39:41.146Z,102712.59
2022-12-18T07:42:11.515Z,102703.59
2022-12-18T07:44:41.699Z,102699.32
2022-12-18T07:47:12.519Z,102695.13
2022-12-18T07:49:42.522Z,102690.47
2022-12-18T07:52:12.990Z,102688.45
2022-12-18T07:54:43.052Z,102695.16
2022-12-18T07:57:34.008Z,102698.37
2022-12-18T07:59:44.254Z,102702.31
2022-12-18T08:02:15.356Z,102700.99
2022-12-18T08:04:45.706Z,102696.25
2022-12-18T08:07:16.401Z,102694.25
2022-12-18T08:09:46.561Z,102692.58
2022-12-18T08:12:17.312Z,102696.37
2022-12-18T08:14:47.707Z,102703.91
2022-12-18T08:17:18.368Z,102707.38
2022-12-18T08:19:48.632Z,102708.64
2022-12-18T08:22:18.803Z,102711.60
2022-12-18T08:24:49.283Z,102708.80
2022-12-18T08:27:30.278Z,102711.38
2022-12-18T08:29:50.047Z,102710.29
2022-12-18T08:32:20.881Z,102702.48
2022-12-18T08:34:51.518Z,102694.96
2022-12-18T08:37:21.921Z,102683.35
2022-12-18T08:39:52.615Z,102674.10
2022-12-18T08:42:22.846Z,102671.61
2022-12-18T08:44:53.307Z,102673.64
2022-12-18T08:47:23.726Z,102674.33
2022-12-18T08:49:54.196Z,102663.90
2022-12-18T08:52:24.882Z,102661.61
2022-12-18T08:54:55.698Z,102656.77
2022-12-18T08:57:25.772Z,102651.98
2022-12-18T08:59:56.320Z,102652.71
2022-12-18T09:02:26.589Z,102652.85
2022-12-18T09:04:57.771Z,102659.80
2022-12-18T09:07:27.153Z,102667.44
2022-12-18T09:09:58.029Z,102662.92
2022-12-18T09:12:28.798Z,102668.63
2022-12-18T09:14:59.661Z,102675.21
2022-12-18T09:17:30.500Z,102675.95
2022-12-18T09:20:00.510Z,102679.44
2022-12-18T09:22:30.936Z,102685.12
2022-12-18T09:25:01.570Z,102689.44
2022-12-18T09:27:32.238Z,102685.27
2022-12-18T09:30:02.287Z,102687.74
2022-12-18T09:32:32.495Z,102694.89
2022-12-18T09:35:03.004Z,102698.06
2022-12-18T09:37:33.328Z,102696.79
2022-12-18T09:40:03.978Z,102691.63
2022-12-18T09:42:34.815Z,102686.02
2022-12-18T09:45:05.616Z,102680.52
2022-12-18T09:47:35.940Z,102672.52
2022-12-18T09:50:06.629Z,102663.95
2022-12-18T09:52:37.350Z,102657.86
2022-12-18T09:55:08.078Z,102646.48
2022-12-18T09:57:38.721Z,102636.32
2022-12-18T10:00:08.741Z,102633.18
2022-12-18T10:02:39.145Z,102632.49
2022-12-18T10:05:09.437Z,102638.49
2022-12-18T10:07:39.698Z,102645.18
2022-12-18T10:10:10.364Z,102654.91
2022-12-18T10:12:40.410Z,102653.53
2022-12-18T10:15:11.221Z,102643.95
2022-12-18T10:17:41.899Z,102635.85
2022-12-18T10:20:12.431Z,102630.85
2022-12-18T10:22:42.777Z,102637.76
2022-12-18T10:25:13.510Z,102638.73
2022-12-18T10:27:43.959Z,102637.22
2022-12-18T10:30:14.756Z,102629.10
2022-12-18T10:32:44.880Z,102623.49
2022-12-18T10:35:15.754Z,102616.43
2022-12-18T10:37:46.330Z,102608.58
2022-12-18T10:40:21.846Z,102607.60
2022-12-18T10:42:46.754Z,102601.46
2022-12-18T10:45:16.808Z,102600.11
2022-12-18T10:47:47.270Z,102603.68
2022-12-18T10:50:17.336Z,102602.98
2022-12-18T10:52:47.512Z,102596.40
2022-12-18T10:55:17.712Z,102590.88
2022-12-18T10:57:48.549Z,102583.24
2022-12-18T11:00:19.022Z,102576.78
2022-12-18T11:02:50.006Z,102573.63
2022-12-18T11:05:19.929Z,102575.32
2022-12-18T11:07:50.152Z,102576.19
2022-12-18T11:10:20.639Z,102575.30
2022-12-18T11:12:50.904Z,102566.30
2022-12-18T11:15:21.610Z,102552.53
2022-12-18T11:17:52.233Z,102548.58
2022-12-18T11:20:22.453Z,102545.88
2022-12-18T11:22:53.239Z,102534.38
2022-12-18T11:25:33.316Z,102524.47
2022-12-18T11:27:54.327Z,102524.24
2022-12-18T11:30:24.772Z,102530.21
2022-12-18T11:32:55.674Z,102538.52
2022-12-18T11:35:25.920Z,102533.87
2022-12-18T11:37:56.129Z,102531.25
2022-12-18T11:40:26.540Z,102539.17
2022-12-18T11:42:57.214Z,102536.22
2022-12-18T11:45:27.334Z,102531.77
2022-12-18T11:47:58.322Z,102527.70
2022-12-18T11:50:28.863Z,102534.58
2022-12-18T11:53:04.183Z,102543.76
2022-12-18T11:55:29.662Z,102537.31
2022-12-18T11:57:59.902Z,102530.69
2022-12-18T12:00:30.592Z,102521.89
2022-12-18T12:03:01.123Z,102518.32
2022-12-18T12:05:31.422Z,102514.93
2022-12-18T12:08:01.976Z,102507.14
2022-12-18T12:10:32.200Z,102504.41
2022-12-18T12:13:02.986Z,102495.85
2022-12-18T12:15:33.454Z,102489.30
2022-12-18T12:18:08.199Z,102480.17
2022-12-18T12:20:36.150Z,102477.85
2022-12-18T12:23:04.736Z,102477.71
2022-12-18T12:25:35.451Z,102474.50
2022-12-18T12:28:06.271Z,102467.81
2022-12-18T12:30:36.370Z,102459.42
2022-12-18T12:33:06.649Z,102451.07
2022-12-18T12:35:37.069Z,102444.44
2022-12-18T12:38:07.144Z,102437.74
2022-12-18T12:40:54.981Z,102436.34
2022-12-18T12:43:07.972Z,102433.05
2022-12-18T12:45:38.513Z,102435.75
2022-12-18T12:48:08.826Z,102443.23
2022-12-18T12:50:39.554Z,102438.17
2022-12-18T12:53:10.589Z,102429.14
2022-12-18T12:55:40.536Z,102422.95
2022-12-18T12:58:10.829Z,102421.44
2022-12-18T13:00:40.985Z,102413.10
2022-12-18T13:03:11.360Z,102400.07
2022-12-18T13:05:41.905Z,102390.40
2022-12-18T13:08:12.385Z,102377.12
2022-12-18T13:10:42.926Z,102370.72
2022-12-18T13:13:13.356Z,102373.46
2022-12-18T13:15:43.659Z,102375.40
2022-12-18T13:18:14.128Z,102372.18
2022-12-18T13:20:47.840Z,102368.15
2022-12-18T13:23:14.498Z,102373.78
2022-12-18T13:25:45.186Z,102371.45
2022-12-18T13:28:16.839Z,102364.37
2022-12-18T13:30:46.035Z,102362.34
2022-12-18T13:33:16.891Z,102360.95
2022-12-18T13:35:47.711Z,102352.22
2022-12-18T13:38:18.166Z,102354.95
2022-12-18T13:40:48.496Z,102356.78
2022-12-18T13:43:19.142Z,102351.55
2022-12-18T13:45:49.830Z,102347.23
2022-12-18T13:48:20.371Z,102342.01
2022-12-18T13:50:50.722Z,102339.00
2022-12-18T13:53:21.229Z,102348.32
2022-12-18T13:55:51.753Z,102346.57
2022-12-18T13:58:22.301Z,102343.25
2022-12-18T14:00:52.573Z,102341.95
2022-12-18T14:03:23.481Z,102340.13
2022-12-18T14:05:54.081Z,102337.32
2022-12-18T14:08:24.563Z,102330.29
2022-12-18T14:10:54.775Z,102315.69
2022-12-18T14:13:24.918Z,102320.14
2022-12-18T14:15:55.063Z,102320.92
2022-12-18T14:18:25.947Z,102316.34
2022-12-18T14:20:56.100Z,102301.25
2022-12-18T14:23:26.855Z,102310.65
2022-12-18T14:26:00.856Z,102300.13
2022-12-18T14:28:28.502Z,102295.03
2022-12-18T14:30:59.232Z,102289.33
2022-12-18T14:33:29.283Z,102290.97
2022-12-18T14:36:00.023Z,102284.70
2022-12-18T14:38:30.554Z,102293.81
2022-12-18T14:41:01.247Z,102295.34
2022-12-18T14:43:30.796Z,102298.48
2022-12-18T14:46:01.538Z,102284.58
2022-12-18T14:48:32.355Z,102282.31
2022-12-18T14:51:02.666Z,102281.10
2022-12-18T14:53:33.520Z,102272.01
2022-12-18T14:56:03.912Z,102264.72
2022-12-18T14:58:34.480Z,102262.64
2022-12-18T15:01:04.925Z,102256.69
2022-12-18T15:03:35.516Z,102251.43
2022-12-18T15:06:05.683Z,102247.45
2022-12-18T15:08:36.132Z,102239.50
2022-12-18T15:11:13.149Z,102237.30
2022-12-18T15:13:37.645Z,102236.84
2022-12-18T15:16:08.127Z,102239.21
2022-12-18T15:18:38.715Z,102243.54
2022-12-18T15:21:08.869Z,102235.95
2022-12-18T15:23:40.231Z,102224.28
2022-12-18T15:26:09.935Z,102224.76
2022-12-18T15:28:40.733Z,102217.85
2022-12-18T15:31:10.706Z,102217.95
2022-12-18T15:33:41.285Z,102210.04
2022-12-18T15:36:11.546Z,102215.87
2022-12-18T15:38:42.058Z,102222.14
2022-12-18T15:41:14.373Z,102227.65
2022-12-18T15:43:43.684Z,102220.88
2022-12-18T15:46:13.769Z,102213.19
2022-12-18T15:48:44.449Z,102209.27
2022-12-18T15:51:15.139Z,102208.30
2022-12-18T15:53:45.617Z,102204.62
2022-12-18T15:56:15.768Z,102195.81
2022-12-18T15:58:46.175Z,102195.31
2022-12-18T16:01:16.641Z,102193.02
2022-12-18T16:03:47.286Z,102185.01
2022-12-18T16:06:17.598Z,102182.03
2022-12-18T16:08:48.074Z,102172.63
2022-12-18T16:11:18.222Z,102167.53
2022-12-18T16:13:49.032Z,102159.94
2022-12-18T16:16:19.460Z,102158.34
2022-12-18T16:18:49.686Z,102156.71
2022-12-18T16:21:20.314Z,102150.91
2022-12-18T16:23:50.533Z,102152.11
2022-12-18T16:26:21.370Z,102148.01
2022-12-18T16:28:51.434Z,102136.74
2022-12-18T16:31:21.730Z,102128.00
2022-12-18T16:33:51.827Z,102128.77
2022-12-18T16:36:21.926Z,102123.39
2022-12-18T16:38:52.798Z,102116.31
2022-12-18T16:41:22.862Z,102119.79
2022-12-18T16:43:54.984Z,102126.25
2022-12-18T16:46:23.576Z,102128.55
2022-12-18T16:48:54.352Z,102125.71
2022-12-18T16:51:25.034Z,102123.26
2022-12-18T16:53:55.351Z,102121.65
2022-12-18T16:56:25.907Z,102108.37
2022-12-18T16:58:56.137Z,102119.07
2022-12-18T17:01:26.330Z,102128.31
2022-12-18T17:03:56.437Z,102135.84
2022-12-18T17:06:26.363Z,102139.79
2022-12-18T17:08:56.822Z,102131.76
2022-12-18T17:11:27.475Z,102117.36
2022-12-18T17:13:58.249Z,102109.12
2022-12-18T17:16:28.482Z,102103.78
2022-12-18T17:18:58.595Z,102100.96
2022-12-18T17:21:29.271Z,102084.41
2022-12-18T17:24:00.122Z,102085.42
2022-12-18T17:26:30.178Z,102092.16
2022-12-18T17:29:00.296Z,102096.78
2022-12-18T17:31:30.478Z,102089.71
2022-12-18T17:34:00.558Z,102080.46
2022-12-18T17:36:31.160Z,102085.91
2022-12-18T17:39:01.872Z,102085.97
2022-12-18T17:41:32.526Z,102088.29
2022-12-18T17:44:03.415Z,102082.97
2022-12-18T17:46:34.159Z,102073.20
2022-12-18T17:49:04.432Z,102074.90
2022-12-18T17:51:35.161Z,102071.77
2022-12-18T17:54:05.368Z,102071.02
2022-12-18T17:56:36.012Z,102072.38
2022-12-18T17:59:06.778Z,102069.52
2022-12-18T18:01:42.611Z,102073.22
2022-12-18T18:04:07.556Z,102060.52
2022-12-18T18:06:39.361Z,102069.20
2022-12-18T18:09:15.998Z,102063.21
2022-12-18T18:11:38.691Z,102062.97
2022-12-18T18:14:08.852Z,102055.00
2022-12-18T18:16:39.073Z,102061.62
2022-12-18T18:19:09.665Z,102055.53
2022-12-18T18:21:40.493Z,102051.53
2022-12-18T18:24:10.813Z,102055.61
2022-12-18T18:26:41.621Z,102053.02
2022-12-18T18:29:11.763Z,102050.46
2022-12-18T18:31:42.285Z,102048.24
2022-12-18T18:34:12.631Z,102043.44
2022-12-18T18:36:43.262Z,102047.54
2022-12-18T18:39:13.887Z,102040.31
2022-12-18T18:41:47.651Z,102039.13
2022-12-18T18:44:14.670Z,102045.07
2022-12-18T18:46:45.327Z,102052.42
2022-12-18T18:49:16.115Z,102055.22
2022-12-18T18:51:46.119Z,102054.34
2022-12-18T18:54:16.606Z,102045.50
2022-12-18T18:57:20.486Z,102046.24
2022-12-18T18:59:17.418Z,102046.22
2022-12-18T19:01:48.039Z,102042.53
2022-12-18T19:04:18.064Z,102043.03
2022-12-18T19:06:48.698Z,102042.84
2022-12-18T19:09:19.511Z,102040.50
2022-12-18T19:11:50.120Z,102037.21
2022-12-18T19:14:20.574Z,102047.62
2022-12-18T19:16:50.776Z,102045.31
2022-12-18T19:19:20.988Z,102044.50
2022-12-18T19:21:51.528Z,102039.39
2022-12-18T19:24:22.628Z,102042.64
2022-12-18T19:26:52.727Z,102047.16
2022-12-18T19:29:22.880Z,102050.81
2022-12-18T19:31:53.101Z,102049.80
2022-12-18T19:34:23.242Z,102049.29
2022-12-18T19:36:59.434Z,102049.46
2022-12-18T19:39:23.808Z,102040.49
2022-12-18T19:41:54.591Z,102038.11
2022-12-18T19:44:25.106Z,102038.20
2022-12-18T19:46:55.508Z,102035.38
2022-12-18T19:49:25.749Z,102032.82
2022-12-18T19:51:55.929Z,102038.92
2022-12-18T19:54:26.629Z,102025.56
2022-12-18T19:56:57.098Z,102025.11
2022-12-18T19:59:27.113Z,102021.34
2022-12-18T20:01:58.016Z,102019.42
2022-12-18T20:04:28.317Z,102017.98
2022-12-18T20:06:59.034Z,102022.91
2022-12-18T20:09:29.781Z,102020.30
2022-12-18T20:12:00.120Z,102015.86
2022-12-18T20:14:30.905Z,102017.40
2022-12-18T20:17:01.015Z,102012.38
2022-12-18T20:19:31.798Z,102010.23
2022-12-18T20:22:02.148Z,102014.60
2022-12-18T20:24:32.342Z,102014.61
2022-12-18T20:27:02.380Z,102013.86
2022-12-18T20:29:32.987Z,102017.18
2022-12-18T20:32:03.201Z,102018.64
2022-12-18T20:34:33.442Z,102011.19
2022-12-18T20:37:03.678Z,102008.95
2022-12-18T20:39:33.842Z,102006.90
2022-12-18T20:42:04.300Z,102005.59
2022-12-18T20:44:35.003Z,102005.84
2022-12-18T20:47:08.586Z,101996.96
2022-12-18T20:49:35.561Z,101997.05
2022-12-18T20:52:06.126Z,101997.93
2022-12-18T20:54:36.756Z,101995.28
2022-12-18T20:57:07.379Z,101999.22
2022-12-18T20:59:38.594Z,101999.37
2022-12-18T21:02:08.616Z,101999.81
2022-12-18T21:04:38.635Z,101993.80
2022-12-18T21:07:08.971Z,101995.56
2022-12-18T21:09:39.536Z,101993.88
2022-12-18T21:12:11.109Z,101998.61
2022-12-18T21:14:40.044Z,101994.49
2022-12-18T21:17:10.159Z,101995.25
2022-12-18T21:19:40.439Z,101995.32
2022-12-18T21:22:10.665Z,101993.75
2022-12-18T21:24:40.767Z,101994.03
2022-12-18T21:27:10.713Z,101991.23
2022-12-18T21:29:41.300Z,101985.76
2022-12-18T21:32:11.333Z,101985.86
2022-12-18T21:34:46.218Z,101986.47
2022-12-18T21:37:11.754Z,101986.39
2022-12-18T21:39:42.016Z,101982.65
2022-12-18T21:42:12.099Z,101986.72
2022-12-18T21:44:42.730Z,101985.86
2022-12-18T21:47:22.592Z,101988.44
2022-12-18T21:49:43.487Z,101984.85
2022-12-18T21:52:14.278Z,101987.76
2022-12-18T21:54:44.684Z,101981.64
2022-12-18T21:57:14.690Z,101975.67
2022-12-18T21:59:44.962Z,101972.43
2022-12-18T22:02:15.613Z,101969.58
2022-12-18T22:04:46.285Z,101967.46
2022-12-18T22:07:16.675Z,101959.70
2022-12-18T22:09:47.214Z,101960.57
2022-12-18T22:12:17.339Z,101958.51
2022-12-18T22:14:47.988Z,101955.58
2022-12-18T22:17:18.803Z,101956.21
2022-12-18T22:19:49.063Z,101952.10
2022-12-18T22:22:19.925Z,101952.35
2022-12-18T22:24:50.320Z,101955.49
2022-12-18T22:27:20.409Z,101955.73
2022-12-18T22:29:50.869Z,101946.54
2022-12-18T22:32:30.857Z,101944.24
2022-12-18T22:34:51.764Z,101935.43
2022-12-18T22:37:21.870Z,101930.08
2022-12-18T22:39:52.463Z,101930.11
2022-12-18T22:42:23.060Z,101929.93
2022-12-18T22:44:53.703Z,101933.42
2022-12-18T22:47:29.203Z,101926.78
2022-12-18T22:49:54.654Z,101918.74
2022-12-18T22:52:25.613Z,101915.83
2022-12-18T22:54:55.599Z,101910.73
2022-12-18T22:57:26.330Z,101908.16
2022-12-18T22:59:56.812Z,101903.93
2022-12-18T23:02:27.638Z,101902.47
2022-12-18T23:04:58.187Z,101899.06
2022-12-18T23:07:29.022Z,101896.04
2022-12-18T23:10:01.063Z,101888.68
2022-12-18T23:12:29.854Z,101884.91
2022-12-18T23:15:00.680Z,101889.30
2022-12-18T23:17:31.238Z,101882.90
2022-12-18T23:20:01.785Z,101871.20
2022-12-18T23:22:32.543Z,101858.09
2022-12-18T23:25:02.683Z,101851.01
2022-12-18T23:27:33.212Z,101851.32
2022-12-18T23:30:03.776Z,101851.14
2022-12-18T23:32:33.905Z,101846.19
2022-12-18T23:35:04.587Z,101836.25
2022-12-18T23:37:58.426Z,101836.29
2022-12-18T23:40:05.446Z,101831.51
2022-12-18T23:42:35.869Z,101835.59
2022-12-18T23:45:17.413Z,101827.57
2022-12-18T23:47:36.569Z,101819.64
2022-12-18T23:50:06.989Z,101810.24
2022-12-18T23:52:36.888Z,101810.97
2022-12-18T23:55:07.231Z,101806.77
2022-12-18T23:57:37.542Z,101805.01
